createdAt,value
2022-08-03T00:00:09.011Z,101381.06
2022-08-03T00:00:46.432Z,101381.88
2022-08-03T00:01:18.673Z,101385.50
2022-08-03T00:01:50.478Z,101382.34
2022-08-03T00:02:22.207Z,101380.22
2022-08-03T00:02:53.900Z,101380.59
2022-08-03T00:03:25.669Z,101380.03
2022-08-03T00:03:57.297Z,101382.03
2022-08-03T00:04:33.905Z,101380.72
2022-08-03T00:05:08.372Z,101383.16
2022-08-03T00:05:40.151Z,101382.09
2022-08-03T00:06:36.492Z,101389.72
2022-08-03T00:07:08.678Z,101381.06
2022-08-03T00:07:41.148Z,101386.59
2022-08-03T00:08:12.709Z,101381.06
2022-08-03T00:08:44.327Z,101387.59
2022-08-03T00:09:15.919Z,101387.25
2022-08-03T00:09:47.460Z,101383.91
2022-08-03T00:10:19.087Z,101379.09
2022-08-03T00:10:50.786Z,101377.63
2022-08-03T00:11:22.377Z,101382.75
2022-08-03T00:11:53.958Z,101388.13
2022-08-03T00:12:25.485Z,101383.34
2022-08-03T00:12:57.163Z,101385.44
2022-08-03T00:13:28.780Z,101383.91
2022-08-03T00:14:00.770Z,101389.03
2022-08-03T00:14:32.370Z,101383.25
2022-08-03T00:15:04.430Z,101381.88
2022-08-03T00:15:42.913Z,101383.81
2022-08-03T00:16:14.720Z,101385.59
2022-08-03T00:16:46.245Z,101380.13
2022-08-03T00:17:17.805Z,101382.34
2022-08-03T00:17:52.333Z,101387.72
2022-08-03T00:18:25.548Z,101381.16
2022-08-03T00:18:57.288Z,101382.00
2022-08-03T00:19:28.925Z,101380.47
2022-08-03T00:20:00.482Z,101382.91
2022-08-03T00:20:32.231Z,101381.16
2022-08-03T00:21:04.477Z,101380.34
2022-08-03T00:21:36.091Z,101380.50
2022-08-03T00:22:07.664Z,101379.63
2022-08-03T00:22:39.540Z,101378.84
2022-08-03T00:23:11.448Z,101376.88
2022-08-03T00:23:51.437Z,101376.28
2022-08-03T00:24:24.428Z,101380.59
2022-08-03T00:24:56.017Z,101375.22
2022-08-03T00:25:27.829Z,101377.91
2022-08-03T00:25:59.407Z,101378.41
2022-08-03T00:26:31.745Z,101371.63
2022-08-03T00:27:03.782Z,101377.34
2022-08-03T00:27:38.066Z,101371.81
2022-08-03T00:28:09.969Z,101370.31
2022-08-03T00:28:42.018Z,101380.66
2022-08-03T00:29:13.550Z,101369.25
2022-08-03T00:29:59.409Z,101374.63
2022-08-03T00:30:32.664Z,101369.13
2022-08-03T00:31:04.227Z,101373.47
2022-08-03T00:31:51.582Z,101371.69
2022-08-03T00:32:24.795Z,101372.66
2022-08-03T00:32:56.576Z,101371.00
2022-08-03T00:33:28.296Z,101378.50
2022-08-03T00:34:29.153Z,101373.94
2022-08-03T00:35:09.859Z,101376.44
2022-08-03T00:35:50.495Z,101376.59
2022-08-03T00:36:23.527Z,101378.06
2022-08-03T00:36:55.076Z,101368.72
2022-08-03T00:37:40.908Z,101370.34
2022-08-03T00:38:13.383Z,101372.69
2022-08-03T00:38:44.956Z,101367.06
2022-08-03T00:39:16.502Z,101368.81
2022-08-03T00:39:48.123Z,101367.66
2022-08-03T00:40:20.481Z,101375.72
2022-08-03T00:40:52.084Z,101372.44
2022-08-03T00:41:23.834Z,101375.38
2022-08-03T00:41:55.382Z,101369.19
2022-08-03T00:42:28.507Z,101366.41
2022-08-03T00:43:05.143Z,101367.56
2022-08-03T00:43:36.677Z,101368.72
2022-08-03T00:44:08.259Z,101368.31
2022-08-03T00:44:41.032Z,101371.81
2022-08-03T00:45:13.455Z,101374.75
2022-08-03T00:45:45.171Z,101364.00
2022-08-03T00:46:21.422Z,101363.66
2022-08-03T00:46:53.582Z,101367.06
2022-08-03T00:47:25.129Z,101368.81
2022-08-03T00:47:57.353Z,101372.66
2022-08-03T00:48:33.053Z,101373.47
2022-08-03T00:49:07.820Z,101375.56
2022-08-03T00:49:42.850Z,101374.09
2022-08-03T00:50:17.826Z,101377.72
2022-08-03T00:50:49.659Z,101378.78
2022-08-03T00:51:25.644Z,101374.84
2022-08-03T00:51:57.198Z,101374.72
2022-08-03T00:52:28.761Z,101375.88
2022-08-03T00:53:01.239Z,101378.22
2022-08-03T00:53:34.906Z,101375.06
2022-08-03T00:54:06.415Z,101373.41
2022-08-03T00:54:38.453Z,101375.97
2022-08-03T00:55:10.851Z,101375.81
2022-08-03T00:55:42.513Z,101372.66
2022-08-03T00:56:15.312Z,101374.88
2022-08-03T00:56:59.292Z,101384.31
2022-08-03T00:57:33.104Z,101371.78
2022-08-03T00:58:08.093Z,101377.75
2022-08-03T00:58:39.617Z,101368.78
2022-08-03T00:59:11.415Z,101375.78
2022-08-03T00:59:46.132Z,101374.63
2022-08-03T01:00:21.195Z,101375.44
2022-08-03T01:00:54.486Z,101372.19
2022-08-03T01:01:26.223Z,101365.19
2022-08-03T01:02:03.919Z,101365.19
2022-08-03T01:02:35.716Z,101362.72
2022-08-03T01:03:08.633Z,101370.56
2022-08-03T01:03:40.932Z,101370.88
2022-08-03T01:04:12.594Z,101364.94
2022-08-03T01:04:44.122Z,101362.25
2022-08-03T01:05:15.971Z,101359.88
2022-08-03T01:06:03.365Z,101364.22
2022-08-03T01:07:10.706Z,101363.97
2022-08-03T01:07:52.860Z,101364.47
2022-08-03T01:08:43.052Z,101360.88
2022-08-03T01:09:43.888Z,101363.34
2022-08-03T01:10:37.704Z,101363.72
2022-08-03T01:11:15.767Z,101369.34
2022-08-03T01:12:01.259Z,101367.03
2022-08-03T01:12:40.715Z,101364.56
2022-08-03T01:14:03.583Z,101368.59
2022-08-03T01:15:11.045Z,101368.31
2022-08-03T01:16:05.724Z,101364.47
2022-08-03T01:17:14.487Z,101363.53
2022-08-03T01:17:52.303Z,101357.56
2022-08-03T01:18:26.373Z,101360.16
2022-08-03T01:19:24.093Z,101368.31
2022-08-03T01:20:08.471Z,101356.97
2022-08-03T01:20:44.577Z,101357.56
2022-08-03T01:21:29.580Z,101356.06
2022-08-03T01:22:25.052Z,101354.63
2022-08-03T01:23:24.541Z,101349.13
2022-08-03T01:24:23.847Z,101349.41
2022-08-03T01:25:04.001Z,101353.72
2022-08-03T01:25:54.504Z,101348.09
2022-08-03T01:26:57.106Z,101346.63
2022-08-03T01:28:08.443Z,101342.88
2022-08-03T01:28:45.655Z,101341.25
2022-08-03T01:29:54.747Z,101340.78
2022-08-03T01:30:34.026Z,101341.09
2022-08-03T01:31:08.380Z,101342.41
2022-08-03T01:32:53.593Z,101340.81
2022-08-03T01:32:59.325Z,101345.13
2022-08-03T01:33:42.180Z,101339.22
2022-08-03T01:34:16.041Z,101334.44
2022-08-03T01:35:02.014Z,101340.28
2022-08-03T01:36:00.027Z,101336.66
2022-08-03T01:36:38.636Z,101333.84
2022-08-03T01:37:11.344Z,101341.44
2022-08-03T01:37:48.472Z,101342.22
2022-08-03T01:38:29.646Z,101343.38
2022-08-03T01:39:09.341Z,101341.09
2022-08-03T01:39:41.562Z,101339.81
2022-08-03T01:40:14.460Z,101344.84
2022-08-03T01:40:47.097Z,101339.72
2022-08-03T01:41:25.858Z,101339.63
2022-08-03T01:42:00.330Z,101335.97
2022-08-03T01:42:32.798Z,101335.50
2022-08-03T01:43:06.550Z,101340.88
2022-08-03T01:44:26.732Z,101339.81
2022-08-03T01:44:51.835Z,101344.03
2022-08-03T01:45:24.453Z,101335.97
2022-08-03T01:45:57.369Z,101341.44
2022-08-03T01:46:31.260Z,101337.25
2022-08-03T01:47:03.757Z,101337.00
2022-08-03T01:47:35.984Z,101333.97
2022-08-03T01:48:07.616Z,101330.69
2022-08-03T01:48:42.971Z,101341.91
2022-08-03T01:49:15.393Z,101340.28
2022-08-03T01:49:48.238Z,101337.59
2022-08-03T01:50:23.683Z,101345.00
2022-08-03T01:50:55.854Z,101335.50
2022-08-03T01:51:56.111Z,101345.19
2022-08-03T01:52:21.736Z,101336.66
2022-08-03T01:52:54.976Z,101333.97
2022-08-03T01:53:26.775Z,101342.38
2022-08-03T01:53:58.974Z,101337.91
2022-08-03T01:54:31.692Z,101342.00
2022-08-03T01:55:04.310Z,101334.50
2022-08-03T01:55:36.769Z,101343.47
2022-08-03T01:56:08.782Z,101338.97
2022-08-03T01:56:41.503Z,101332.22
2022-08-03T01:57:13.512Z,101335.31
2022-08-03T01:58:06.148Z,101336.53
2022-08-03T01:58:37.855Z,101342.72
2022-08-03T01:59:11.671Z,101336.22
2022-08-03T01:59:44.833Z,101337.59
2022-08-03T02:00:16.947Z,101338.81
2022-08-03T02:00:51.554Z,101334.81
2022-08-03T02:01:24.008Z,101337.31
2022-08-03T02:02:15.624Z,101339.75
2022-08-03T02:02:49.633Z,101334.28
2022-08-03T02:03:23.319Z,101341.06
2022-08-03T02:04:00.845Z,101332.16
2022-08-03T02:04:33.281Z,101334.59
2022-08-03T02:05:10.875Z,101330.88
2022-08-03T02:05:45.463Z,101331.69
2022-08-03T02:07:00.305Z,101334.25
2022-08-03T02:07:12.098Z,101336.38
2022-08-03T02:07:45.275Z,101333.59
2022-08-03T02:08:18.435Z,101332.28
2022-08-03T02:08:51.674Z,101332.91
2022-08-03T02:09:23.892Z,101336.75
2022-08-03T02:09:55.980Z,101338.97
2022-08-03T02:10:35.509Z,101336.84
2022-08-03T02:11:07.979Z,101335.94
2022-08-03T02:11:40.385Z,101335.84
2022-08-03T02:12:14.730Z,101333.00
2022-08-03T02:12:51.024Z,101325.53
2022-08-03T02:13:24.843Z,101338.00
2022-08-03T02:13:58.488Z,101331.09
2022-08-03T02:14:31.207Z,101323.53
2022-08-03T02:15:03.388Z,101334.75
2022-08-03T02:15:37.462Z,101336.03
2022-08-03T02:16:09.356Z,101331.16
2022-08-03T02:16:40.880Z,101329.75
2022-08-03T02:17:12.906Z,101336.16
2022-08-03T02:17:46.035Z,101332.09
2022-08-03T02:18:18.520Z,101333.72
2022-08-03T02:18:50.739Z,101334.06
2022-08-03T02:19:22.935Z,101333.59
2022-08-03T02:19:56.654Z,101330.69
2022-08-03T02:20:28.611Z,101329.66
2022-08-03T02:21:01.568Z,101328.47
2022-08-03T02:21:57.494Z,101333.69
2022-08-03T02:22:33.909Z,101335.41
2022-08-03T02:23:06.696Z,101333.78
2022-08-03T02:23:38.607Z,101334.16
2022-08-03T02:24:11.020Z,101335.19
2022-08-03T02:24:42.589Z,101328.56
2022-08-03T02:25:20.886Z,101329.59
2022-08-03T02:25:59.960Z,101334.06
2022-08-03T02:26:35.654Z,101336.84
2022-08-03T02:27:13.397Z,101332.03
2022-08-03T02:28:09.039Z,101339.13
2022-08-03T02:28:43.503Z,101331.47
2022-08-03T02:29:20.632Z,101336.50
2022-08-03T02:30:14.290Z,101336.16
2022-08-03T02:30:51.886Z,101333.34
2022-08-03T02:31:29.675Z,101342.41
2022-08-03T02:32:04.507Z,101327.75
2022-08-03T02:32:39.248Z,101335.69
2022-08-03T02:33:32.527Z,101331.50
2022-08-03T02:34:09.025Z,101337.22
2022-08-03T02:34:42.497Z,101340.13
2022-08-03T02:35:15.961Z,101337.25
2022-08-03T02:35:47.665Z,101335.03
2022-08-03T02:36:25.904Z,101336.88
2022-08-03T02:37:00.331Z,101333.28
2022-08-03T02:37:34.792Z,101328.72
2022-08-03T02:38:08.397Z,101328.25
2022-08-03T02:38:43.153Z,101328.72
2022-08-03T02:39:17.599Z,101335.84
2022-08-03T02:39:49.303Z,101330.56
2022-08-03T02:40:21.668Z,101332.56
2022-08-03T02:40:55.619Z,101335.84
2022-08-03T02:41:32.294Z,101328.25
2022-08-03T02:42:08.620Z,101322.88
2022-08-03T02:42:41.809Z,101326.16
2022-08-03T02:43:18.477Z,101327.69
2022-08-03T02:44:06.171Z,101328.94
2022-08-03T02:44:39.835Z,101330.81
2022-08-03T02:45:15.663Z,101327.19
2022-08-03T02:45:49.563Z,101325.09
2022-08-03T02:46:31.223Z,101322.41
2022-08-03T02:47:05.625Z,101325.69
2022-08-03T02:47:53.238Z,101325.09
2022-08-03T02:48:29.368Z,101331.75
2022-08-03T02:49:40.510Z,101322.41
2022-08-03T02:49:54.768Z,101325.81
2022-08-03T02:50:27.566Z,101325.09
2022-08-03T02:50:59.969Z,101325.81
2022-08-03T02:51:34.097Z,101314.72
2022-08-03T02:52:13.108Z,101317.16
2022-08-03T02:52:46.111Z,101316.25
2022-08-03T02:53:18.220Z,101315.19
2022-08-03T02:53:51.667Z,101323.69
2022-08-03T02:54:25.050Z,101317.75
2022-08-03T02:55:00.340Z,101316.34
2022-08-03T02:55:34.497Z,101318.94
2022-08-03T02:56:07.077Z,101314.72
2022-08-03T02:56:39.453Z,101318.47
2022-08-03T02:57:11.564Z,101320.09
2022-08-03T02:57:44.818Z,101317.88
2022-08-03T02:58:18.714Z,101323.00
2022-08-03T02:58:50.431Z,101307.38
2022-08-03T02:59:22.614Z,101316.81
2022-08-03T02:59:55.570Z,101316.94
2022-08-03T03:00:28.481Z,101312.72
2022-08-03T03:01:00.557Z,101316.22
2022-08-03T03:01:32.275Z,101315.09
2022-08-03T03:02:04.429Z,101323.13
2022-08-03T03:02:36.941Z,101314.03
2022-08-03T03:03:09.620Z,101313.09
2022-08-03T03:03:44.912Z,101317.28
2022-08-03T03:04:17.403Z,101319.25
2022-08-03T03:05:50.885Z,101316.72
2022-08-03T03:05:53.244Z,101321.38
2022-08-03T03:06:29.231Z,101313.22
2022-08-03T03:07:03.755Z,101316.56
2022-08-03T03:07:51.255Z,101313.56
2022-08-03T03:08:28.094Z,101317.78
2022-08-03T03:09:00.570Z,101313.31
2022-08-03T03:09:41.663Z,101309.97
2022-08-03T03:10:14.913Z,101318.22
2022-08-03T03:10:47.416Z,101306.78
2022-08-03T03:11:21.116Z,101308.41
2022-08-03T03:11:53.377Z,101319.38
2022-08-03T03:12:26.161Z,101312.25
2022-08-03T03:12:58.627Z,101318.69
2022-08-03T03:13:31.185Z,101315.31
2022-08-03T03:14:02.816Z,101314.28
2022-08-03T03:14:34.846Z,101313.09
2022-08-03T03:15:06.820Z,101318.69
2022-08-03T03:15:39.426Z,101314.13
2022-08-03T03:16:13.523Z,101307.94
2022-08-03T03:16:47.141Z,101308.19
2022-08-03T03:17:24.509Z,101317.16
2022-08-03T03:17:56.732Z,101311.00
2022-08-03T03:18:29.106Z,101314.59
2022-08-03T03:19:01.997Z,101314.38
2022-08-03T03:19:34.371Z,101314.84
2022-08-03T03:20:07.024Z,101311.69
2022-08-03T03:20:39.321Z,101308.31
2022-08-03T03:21:11.382Z,101312.28
2022-08-03T03:21:44.112Z,101313.09
2022-08-03T03:22:16.229Z,101316.81
2022-08-03T03:22:51.754Z,101313.09
2022-08-03T03:23:25.051Z,101317.88
2022-08-03T03:23:57.034Z,101321.84
2022-08-03T03:24:29.773Z,101314.03
2022-08-03T03:25:02.074Z,101301.44
2022-08-03T03:25:34.517Z,101311.59
2022-08-03T03:26:07.229Z,101315.66
2022-08-03T03:26:42.392Z,101317.41
2022-08-03T03:27:16.650Z,101312.88
2022-08-03T03:27:49.494Z,101304.69
2022-08-03T03:28:25.557Z,101308.06
2022-08-03T03:28:57.160Z,101305.72
2022-08-03T03:29:28.868Z,101305.50
2022-08-03T03:30:00.616Z,101309.59
2022-08-03T03:30:32.169Z,101313.22
2022-08-03T03:31:06.233Z,101311.34
2022-08-03T03:31:37.807Z,101313.69
2022-08-03T03:32:09.553Z,101307.50
2022-08-03T03:32:41.552Z,101313.91
2022-08-03T03:33:13.222Z,101314.50
2022-08-03T03:33:44.882Z,101305.88
2022-08-03T03:34:16.592Z,101312.28
2022-08-03T03:34:48.145Z,101309.59
2022-08-03T03:35:19.767Z,101313.78
2022-08-03T03:35:51.915Z,101305.16
2022-08-03T03:36:23.491Z,101305.16
2022-08-03T03:36:55.143Z,101306.78
2022-08-03T03:37:27.029Z,101308.88
2022-08-03T03:37:58.660Z,101302.69
2022-08-03T03:38:30.549Z,101304.69
2022-08-03T03:39:15.265Z,101310.03
2022-08-03T03:39:47.759Z,101300.28
2022-08-03T03:40:19.566Z,101305.97
2022-08-03T03:40:51.319Z,101295.25
2022-08-03T03:41:23.037Z,101299.22
2022-08-03T03:41:54.897Z,101301.44
2022-08-03T03:42:26.862Z,101303.53
2022-08-03T03:42:58.396Z,101307.13
2022-08-03T03:43:30.027Z,101295.47
2022-08-03T03:44:01.548Z,101297.00
2022-08-03T03:44:33.164Z,101300.25
2022-08-03T03:45:06.424Z,101299.69
2022-08-03T03:45:38.520Z,101308.31
2022-08-03T03:46:13.000Z,101302.72
2022-08-03T03:46:44.613Z,101304.94
2022-08-03T03:47:16.628Z,101309.00
2022-08-03T03:47:48.265Z,101307.03
2022-08-03T03:48:20.093Z,101300.72
2022-08-03T03:48:51.689Z,101297.47
2022-08-03T03:49:23.579Z,101299.56
2022-08-03T03:49:55.146Z,101295.38
2022-08-03T03:50:30.070Z,101301.91
2022-08-03T03:51:01.795Z,101301.41
2022-08-03T03:51:33.501Z,101303.88
2022-08-03T03:52:05.349Z,101306.69
2022-08-03T03:52:37.184Z,101297.09
2022-08-03T03:53:10.747Z,101302.94
2022-08-03T03:53:54.912Z,101302.25
2022-08-03T03:54:29.059Z,101307.38
2022-08-03T03:55:01.640Z,101302.16
2022-08-03T03:55:33.562Z,101303.31
2022-08-03T03:56:05.352Z,101310.78
2022-08-03T03:56:36.987Z,101301.56
2022-08-03T03:57:10.451Z,101301.09
2022-08-03T03:57:44.807Z,101298.41
2022-08-03T03:58:17.178Z,101304.25
2022-08-03T03:58:48.898Z,101303.75
2022-08-03T03:59:20.489Z,101307.00
2022-08-03T03:59:52.359Z,101312.13
2022-08-03T04:00:23.910Z,101309.34
2022-08-03T04:00:55.664Z,101305.50
2022-08-03T04:01:27.466Z,101306.31
2022-08-03T04:01:59.459Z,101309.34
2022-08-03T04:02:31.070Z,101307.00
2022-08-03T04:03:02.832Z,101317.38
2022-08-03T04:03:35.758Z,101303.88
2022-08-03T04:04:26.125Z,101307.03
2022-08-03T04:05:16.255Z,101314.50
2022-08-03T04:06:06.217Z,101313.31
2022-08-03T04:06:56.157Z,101308.19
2022-08-03T04:08:06.574Z,101306.56
2022-08-03T04:08:56.870Z,101307.63
2022-08-03T04:09:46.826Z,101302.38
2022-08-03T04:10:41.514Z,101305.63
2022-08-03T04:11:28.990Z,101309.13
2022-08-03T04:12:01.838Z,101306.31
2022-08-03T04:12:34.075Z,101313.31
2022-08-03T04:13:10.180Z,101310.19
2022-08-03T04:13:53.553Z,101315.66
2022-08-03T04:14:36.534Z,101314.72
2022-08-03T04:15:09.122Z,101316.00
2022-08-03T04:15:41.674Z,101309.94
2022-08-03T04:16:14.858Z,101317.03
2022-08-03T04:16:50.216Z,101311.69
2022-08-03T04:17:23.937Z,101309.72
2022-08-03T04:17:58.035Z,101321.03
2022-08-03T04:18:31.755Z,101319.97
2022-08-03T04:19:08.131Z,101312.97
2022-08-03T04:19:44.189Z,101319.75
2022-08-03T04:20:17.366Z,101316.47
2022-08-03T04:20:49.894Z,101316.25
2022-08-03T04:21:23.444Z,101315.19
2022-08-03T04:21:59.031Z,101317.88
2022-08-03T04:22:32.600Z,101317.53
2022-08-03T04:23:04.651Z,101310.19
2022-08-03T04:23:48.252Z,101313.22
2022-08-03T04:24:20.411Z,101312.50
2022-08-03T04:25:00.346Z,101311.69
2022-08-03T04:25:34.279Z,101308.28
2022-08-03T04:26:10.014Z,101326.41
2022-08-03T04:26:43.422Z,101319.97
2022-08-03T04:27:17.093Z,101314.03
2022-08-03T04:28:29.239Z,101309.25
2022-08-03T04:28:44.864Z,101310.97
2022-08-03T04:29:17.169Z,101316.34
2022-08-03T04:29:52.235Z,101316.81
2022-08-03T04:30:24.588Z,101313.09
2022-08-03T04:30:56.903Z,101323.81
2022-08-03T04:31:29.614Z,101314.72
2022-08-03T04:32:08.714Z,101318.22
2022-08-03T04:32:45.812Z,101314.25
2022-08-03T04:33:18.834Z,101308.53
2022-08-03T04:33:51.993Z,101311.47
2022-08-03T04:34:23.634Z,101305.28
2022-08-03T04:34:55.219Z,101310.88
2022-08-03T04:35:58.632Z,101314.72
2022-08-03T04:36:24.200Z,101308.88
2022-08-03T04:36:59.622Z,101314.69
2022-08-03T04:37:39.397Z,101303.84
2022-08-03T04:38:13.497Z,101310.97
2022-08-03T04:38:55.993Z,101310.00
2022-08-03T04:39:30.365Z,101312.56
2022-08-03T04:40:03.801Z,101310.56
2022-08-03T04:40:37.502Z,101312.75
2022-08-03T04:41:09.431Z,101312.75
2022-08-03T04:42:07.165Z,101316.00
2022-08-03T04:42:37.285Z,101315.06
2022-08-03T04:43:10.373Z,101316.09
2022-08-03T04:43:42.325Z,101316.19
2022-08-03T04:44:14.870Z,101311.53
2022-08-03T04:44:47.007Z,101318.94
2022-08-03T04:45:19.389Z,101321.97
2022-08-03T04:45:51.486Z,101318.31
2022-08-03T04:46:25.932Z,101324.94
2022-08-03T04:46:58.102Z,101318.09
2022-08-03T04:47:32.586Z,101324.63
2022-08-03T04:48:05.003Z,101317.47
2022-08-03T04:48:36.929Z,101327.59
2022-08-03T04:49:09.331Z,101328.56
2022-08-03T04:49:43.732Z,101320.00
2022-08-03T04:50:20.875Z,101322.69
2022-08-03T04:51:10.886Z,101307.84
2022-08-03T04:51:42.836Z,101316.50
2022-08-03T04:52:14.798Z,101318.47
2022-08-03T04:52:46.702Z,101315.97
2022-08-03T04:53:18.240Z,101325.88
2022-08-03T04:53:51.347Z,101315.53
2022-08-03T04:54:24.656Z,101318.59
2022-08-03T04:54:56.837Z,101319.97
2022-08-03T04:55:30.006Z,101314.47
2022-08-03T04:56:07.817Z,101317.34
2022-08-03T04:56:43.317Z,101313.44
2022-08-03T04:57:22.205Z,101315.38
2022-08-03T04:57:54.316Z,101323.16
2022-08-03T04:58:25.812Z,101317.34
2022-08-03T04:58:57.367Z,101326.09
2022-08-03T04:59:28.872Z,101320.78
2022-08-03T05:00:03.186Z,101321.69
2022-08-03T05:00:35.314Z,101324.47
2022-08-03T05:01:06.834Z,101326.41
2022-08-03T05:01:40.642Z,101319.72
2022-08-03T05:02:12.214Z,101324.59
2022-08-03T05:02:43.734Z,101321.94
2022-08-03T05:03:19.418Z,101315.50
2022-08-03T05:03:55.266Z,101322.53
2022-08-03T05:04:26.808Z,101320.19
2022-08-03T05:04:58.712Z,101320.53
2022-08-03T05:05:37.827Z,101319.97
2022-08-03T05:06:21.761Z,101327.09
2022-08-03T05:06:56.738Z,101322.88
2022-08-03T05:07:35.559Z,101322.91
2022-08-03T05:08:11.067Z,101322.66
2022-08-03T05:08:47.216Z,101326.44
2022-08-03T05:09:49.624Z,101322.50
2022-08-03T05:10:16.069Z,101322.28
2022-08-03T05:10:48.547Z,101325.53
2022-08-03T05:11:20.216Z,101327.47
2022-08-03T05:11:51.759Z,101324.81
2022-08-03T05:12:23.808Z,101327.00
2022-08-03T05:12:55.361Z,101326.50
2022-08-03T05:13:26.951Z,101327.31
2022-08-03T05:13:58.462Z,101330.34
2022-08-03T05:14:30.353Z,101333.09
2022-08-03T05:15:02.178Z,101327.47
2022-08-03T05:15:33.773Z,101328.59
2022-08-03T05:16:14.976Z,101330.84
2022-08-03T05:16:46.583Z,101332.78
2022-08-03T05:17:19.522Z,101333.38
2022-08-03T05:17:51.073Z,101333.34
2022-08-03T05:18:22.618Z,101336.09
2022-08-03T05:18:54.221Z,101332.63
2022-08-03T05:19:25.735Z,101338.91
2022-08-03T05:19:57.436Z,101335.63
2022-08-03T05:20:28.966Z,101335.72
2022-08-03T05:21:00.487Z,101339.78
2022-08-03T05:21:51.967Z,101340.63
2022-08-03T05:22:24.024Z,101336.06
2022-08-03T05:22:55.617Z,101345.03
2022-08-03T05:23:27.339Z,101333.72
2022-08-03T05:23:58.861Z,101342.59
2022-08-03T05:24:30.465Z,101338.09
2022-08-03T05:25:02.396Z,101345.41
2022-08-03T05:25:33.955Z,101340.31
2022-08-03T05:26:05.523Z,101342.22
2022-08-03T05:26:37.261Z,101336.00
2022-08-03T05:27:08.803Z,101342.22
2022-08-03T05:27:40.423Z,101341.69
2022-08-03T05:28:11.930Z,101342.84
2022-08-03T05:28:51.380Z,101340.09
2022-08-03T05:29:23.241Z,101345.28
2022-08-03T05:29:56.834Z,101346.94
2022-08-03T05:30:53.382Z,101342.13
2022-08-03T05:31:24.973Z,101344.31
2022-08-03T05:31:56.560Z,101343.22
2022-08-03T05:32:28.114Z,101349.69
2022-08-03T05:33:00.030Z,101342.66
2022-08-03T05:33:31.640Z,101355.09
2022-08-03T05:34:03.171Z,101343.28
2022-08-03T05:34:34.805Z,101347.13
2022-08-03T05:35:56.072Z,101348.75
2022-08-03T05:36:03.144Z,101351.47
2022-08-03T05:36:35.346Z,101344.44
2022-08-03T05:37:07.423Z,101348.25
2022-08-03T05:37:39.605Z,101341.75
2022-08-03T05:38:34.861Z,101346.13
2022-08-03T05:39:06.948Z,101351.47
2022-08-03T05:39:38.477Z,101345.53
2022-08-03T05:40:10.698Z,101347.47
2022-08-03T05:40:56.933Z,101352.09
2022-08-03T05:41:37.259Z,101340.72
2022-08-03T05:42:09.097Z,101353.19
2022-08-03T05:42:40.793Z,101346.69
2022-08-03T05:43:12.290Z,101349.38
2022-08-03T05:43:44.867Z,101349.09
2022-08-03T05:44:16.390Z,101353.72
2022-08-03T05:44:47.909Z,101348.31
2022-08-03T05:45:19.942Z,101354.25
2022-08-03T05:46:12.312Z,101351.31
2022-08-03T05:46:43.080Z,101354.88
2022-08-03T05:47:14.771Z,101353.25
2022-08-03T05:47:46.351Z,101353.78
2022-08-03T05:48:17.917Z,101358.13
2022-08-03T05:48:49.756Z,101358.13
2022-08-03T05:49:21.323Z,101359.22
2022-08-03T05:49:52.862Z,101361.66
2022-08-03T05:50:24.465Z,101363.53
2022-08-03T05:50:56.079Z,101356.78
2022-08-03T05:51:28.908Z,101358.97
2022-08-03T05:52:14.056Z,101359.00
2022-08-03T05:52:49.481Z,101358.19
2022-08-03T05:53:21.493Z,101360.38
2022-08-03T05:53:53.062Z,101357.13
2022-08-03T05:54:24.647Z,101353.88
2022-08-03T05:55:16.645Z,101358.72
2022-08-03T05:55:52.618Z,101357.06
2022-08-03T05:56:26.435Z,101355.97
2022-08-03T05:56:58.052Z,101358.47
2022-08-03T05:57:29.691Z,101345.38
2022-08-03T05:58:03.803Z,101352.91
2022-08-03T05:58:42.811Z,101345.38
2022-08-03T05:59:37.139Z,101339.75
2022-08-03T06:00:07.989Z,101342.59
2022-08-03T06:00:43.912Z,101346.47
2022-08-03T06:01:16.977Z,101345.25
2022-08-03T06:01:48.851Z,101343.34
2022-08-03T06:02:20.424Z,101346.63
2022-08-03T06:02:51.930Z,101337.22
2022-08-03T06:03:23.535Z,101339.03
2022-08-03T06:03:55.129Z,101346.44
2022-08-03T06:04:26.656Z,101340.22
2022-08-03T06:04:58.263Z,101336.78
2022-08-03T06:05:29.971Z,101338.59
2022-08-03T06:06:01.597Z,101336.97
2022-08-03T06:06:33.155Z,101336.59
2022-08-03T06:07:04.675Z,101339.81
2022-08-03T06:07:36.369Z,101337.91
2022-08-03T06:08:07.939Z,101339.31
2022-08-03T06:08:40.860Z,101327.34
2022-08-03T06:09:12.400Z,101330.50
2022-08-03T06:10:34.492Z,101336.94
2022-08-03T06:10:38.343Z,101338.81
2022-08-03T06:11:13.623Z,101338.53
2022-08-03T06:11:45.224Z,101338.00
2022-08-03T06:12:17.836Z,101343.38
2022-08-03T06:12:50.927Z,101339.78
2022-08-03T06:13:22.524Z,101334.59
2022-08-03T06:13:54.243Z,101327.94
2022-08-03T06:14:25.890Z,101332.72
2022-08-03T06:14:57.503Z,101331.88
2022-08-03T06:15:29.195Z,101337.41
2022-08-03T06:16:00.724Z,101331.56
2022-08-03T06:16:32.461Z,101338.84
2022-08-03T06:17:04.023Z,101329.81
2022-08-03T06:17:44.857Z,101334.63
2022-08-03T06:18:16.312Z,101332.38
2022-08-03T06:18:47.888Z,101327.22
2022-08-03T06:19:19.488Z,101332.53
2022-08-03T06:19:53.972Z,101327.25
2022-08-03T06:20:27.248Z,101332.06
2022-08-03T06:21:09.461Z,101333.34
2022-08-03T06:21:47.349Z,101333.22
2022-08-03T06:22:19.343Z,101338.91
2022-08-03T06:23:00.126Z,101327.41
2022-08-03T06:23:37.870Z,101323.47
2022-08-03T06:24:25.115Z,101330.59
2022-08-03T06:24:56.756Z,101328.53
2022-08-03T06:25:29.366Z,101331.75
2022-08-03T06:26:01.829Z,101342.31
2022-08-03T06:26:33.383Z,101338.63
2022-08-03T06:27:05.050Z,101329.72
2022-08-03T06:27:40.018Z,101332.03
2022-08-03T06:28:35.402Z,101333.94
2022-08-03T06:29:05.632Z,101338.19
2022-08-03T06:29:40.370Z,101334.38
2022-08-03T06:30:12.570Z,101336.16
2022-08-03T06:30:44.996Z,101343.00
2022-08-03T06:31:16.497Z,101344.13
2022-08-03T06:31:48.232Z,101343.47
2022-08-03T06:32:22.822Z,101341.63
2022-08-03T06:32:54.889Z,101343.63
2022-08-03T06:34:30.324Z,101347.06
2022-08-03T06:34:33.976Z,101347.16
2022-08-03T06:35:07.936Z,101347.19
2022-08-03T06:35:39.497Z,101350.16
2022-08-03T06:36:14.263Z,101347.13
2022-08-03T06:36:48.446Z,101357.63
2022-08-03T06:37:19.953Z,101351.06
2022-08-03T06:37:51.793Z,101352.56
2022-08-03T06:38:23.427Z,101358.22
2022-08-03T06:38:54.928Z,101358.81
2022-08-03T06:39:26.430Z,101352.47
2022-08-03T06:39:58.118Z,101357.22
2022-08-03T06:40:31.255Z,101351.38
2022-08-03T06:41:02.843Z,101360.84
2022-08-03T06:41:38.257Z,101356.63
2022-08-03T06:42:16.580Z,101354.81
2022-08-03T06:42:48.259Z,101349.94
2022-08-03T06:43:22.210Z,101358.34
2022-08-03T06:44:03.485Z,101351.75
2022-08-03T06:44:37.585Z,101361.94
2022-08-03T06:45:09.789Z,101356.72
2022-08-03T06:45:42.236Z,101356.28